Time;durP1;ratioP1;P1;durP2;ratioP2;P2;SDS_P1;SDS_P2;PMS_P1;PMS_P2;Temp;Humidity;BMP_temperature;BMP_pressure;BME280_temperature;BME280_humidity;BME280_pressure;Samples;Min_cycle;Max_cycle;Signal;HPM_P1;HPM_P2
2021/04/27 00:01:11;;;;;;;14.73;8.50;;;;;;;10.69;91.12;94840.53;5084549;28;20032;-43
2021/04/27 00:03:36;;;;;;;12.02;8.35;;;;;;;10.69;91.08;94842.31;5086144;28;20069;-44
2021/04/27 00:06:03;;;;;;;10.73;8.02;;;;;;;10.71;91.29;94837.72;5089681;28;20031;-43
2021/04/27 00:08:28;;;;;;;17.13;8.93;;;;;;;10.66;91.90;94834.75;5086336;28;20017;-45
2021/04/27 00:10:54;;;;;;;13.15;9.02;;;;;;;10.62;91.80;94823.75;5084741;28;21351;-44
2021/04/27 00:13:19;;;;;;;10.02;7.78;;;;;;;10.67;91.41;94816.19;5085520;28;21773;-44
2021/04/27 00:15:45;;;;;;;12.77;9.38;;;;;;;10.67;91.66;94825.88;5081492;28;20107;-44
2021/04/27 00:18:11;;;;;;;15.73;13.88;;;;;;;10.81;91.03;94827.84;5083560;28;20115;-43
2021/04/27 00:20:36;;;;;;;17.33;15.43;;;;;;;10.83;90.43;94820.63;5089210;28;20035;-43
2021/04/27 00:23:03;;;;;;;20.83;17.13;;;;;;;10.85;90.24;94820.47;5087117;28;20020;-43
2021/04/27 00:25:29;;;;;;;24.33;19.23;;;;;;;10.94;90.09;94823.88;5086966;28;20031;-44
2021/04/27 00:27:55;;;;;;;19.08;17.17;;;;;;;10.90;90.20;94815.50;5087210;28;20028;-44
2021/04/27 00:30:23;;;;;;;18.13;16.42;;;;;;;10.74;90.81;94811.09;5088644;28;20073;-45
2021/04/27 00:32:49;;;;;;;18.85;15.18;;;;;;;10.66;91.25;94809.25;5083899;28;20032;-44
2021/04/27 00:35:16;;;;;;;19.50;17.67;;;;;;;10.63;91.73;94812.22;5085395;28;20028;-43
2021/04/27 00:37:42;;;;;;;18.40;16.45;;;;;;;10.58;92.41;94806.59;5081614;28;20028;-43
2021/04/27 00:40:10;;;;;;;18.20;16.40;;;;;;;10.58;91.96;94804.81;5086828;28;20468;-43
2021/04/27 00:42:41;;;;;;;16.10;12.45;;;;;;;10.57;91.64;94808.44;5085396;28;20047;-44
2021/04/27 00:45:09;;;;;;;14.90;9.10;;;;;;;10.63;91.44;94812.22;5085481;28;20017;-44
2021/04/27 00:47:36;;;;;;;13.40;8.23;;;;;;;10.66;91.18;94813.69;5086590;28;20036;-44
2021/04/27 00:50:03;;;;;;;14.38;8.07;;;;;;;10.68;90.96;94809.09;5067969;28;20449;-43
2021/04/27 00:52:29;;;;;;;15.27;9.68;;;;;;;10.58;91.29;94811.88;5085145;28;20039;-44
2021/04/27 00:54:54;;;;;;;11.05;8.82;;;;;;;10.54;91.63;94802.66;5086266;28;20024;-46
2021/04/27 00:57:21;;;;;;;12.07;9.18;;;;;;;10.54;92.02;94803.50;5080095;28;20024;-43
2021/04/27 00:59:46;;;;;;;8.82;7.97;;;;;;;10.52;92.29;94796.75;5084737;28;20052;-45
2021/04/27 01:02:12;;;;;;;10.30;9.23;;;;;;;10.49;92.70;94813.66;5083562;28;20503;-44
2021/04/27 01:04:38;;;;;;;10.18;9.20;;;;;;;10.47;92.85;94810.38;5084603;28;20454;-44
2021/04/27 01:07:03;;;;;;;11.27;9.10;;;;;;;10.48;92.71;94804.13;5087449;28;20035;-45
2021/04/27 01:09:35;;;;;;;10.50;9.10;;;;;;;10.52;92.45;94802.84;5084806;28;20043;-44
2021/04/27 01:12:32;;;;;;;12.18;9.82;;;;;;;10.55;91.92;94805.16;5087763;28;20073;-45
2021/04/27 01:15:08;;;;;;;11.43;9.25;;;;;;;10.55;92.35;94802.50;5069848;28;20068;-45
2021/04/27 01:17:35;;;;;;;13.77;9.02;;;;;;;10.54;91.94;94806.13;5085385;28;20505;-44
2021/04/27 01:20:18;;;;;;;12.20;9.30;;;;;;;10.52;92.05;94805.47;5083891;28;20102;-43
2021/04/27 01:22:58;;;;;;;12.27;9.80;;;;;;;10.54;92.17;94806.13;5082517;28;20028;-43
2021/04/27 01:25:45;;;;;;;10.23;7.93;;;;;;;10.57;91.87;94802.34;5083878;28;20400;-43
2021/04/27 01:28:12;;;;;;;12.40;9.70;;;;;;;10.55;92.50;94809.56;5086090;28;20496;-43
2021/04/27 01:30:40;;;;;;;11.55;8.95;;;;;;;10.53;92.30;94803.66;5081639;28;20103;-45
2021/04/27 01:33:08;;;;;;;12.73;9.43;;;;;;;10.54;92.10;94803.50;5082394;28;20107;-45
2021/04/27 01:35:36;;;;;;;12.40;9.00;;;;;;;10.56;91.81;94809.41;5079048;28;20459;-43
2021/04/27 01:38:02;;;;;;;10.48;8.85;;;;;;;10.57;91.64;94805.81;5082672;28;20039;-43
2021/04/27 01:40:28;;;;;;;10.70;8.88;;;;;;;10.58;91.88;94801.34;5082311;28;20024;-46
2021/04/27 01:42:55;;;;;;;17.77;10.70;;;;;;;10.52;92.57;94804.63;5082003;28;20457;-44
2021/04/27 01:45:22;;;;;;;12.35;9.48;;;;;;;10.50;92.53;94802.19;5084046;28;20027;-43
2021/04/27 01:47:48;;;;;;;12.30;8.57;;;;;;;10.55;91.90;94802.50;5083638;28;20087;-43
2021/04/27 01:50:14;;;;;;;11.27;8.05;;;;;;;10.57;91.50;94800.53;5066611;28;20653;-44
2021/04/27 01:52:40;;;;;;;14.05;9.48;;;;;;;10.57;91.42;94797.91;5088327;28;20154;-43
2021/04/27 01:55:07;;;;;;;15.00;8.32;;;;;;;10.52;91.74;94802.84;5084590;28;20032;-43
2021/04/27 01:57:33;;;;;;;11.93;8.80;;;;;;;10.53;91.98;94801.03;5088719;28;20036;-43
2021/04/27 01:59:59;;;;;;;9.98;7.43;;;;;;;10.53;91.87;94803.66;5086794;28;20067;-43
2021/04/27 02:02:25;;;;;;;15.35;6.30;;;;;;;10.50;91.92;94804.81;5081166;28;20032;-44
2021/04/27 02:04:50;;;;;;;7.47;6.03;;;;;;;10.51;91.60;94806.47;5087047;28;20073;-43
2021/04/27 02:07:16;;;;;;;8.23;5.30;;;;;;;10.49;91.27;94797.88;5085596;28;20027;-44
2021/04/27 02:09:41;;;;;;;10.52;5.07;;;;;;;10.48;91.12;94800.69;5086625;28;20031;-47
2021/04/27 02:12:08;;;;;;;4.95;3.60;;;;;;;10.50;90.50;94798.72;5074341;28;20024;-44
2021/04/27 02:14:34;;;;;;;7.78;4.25;;;;;;;10.53;90.48;94798.38;5084244;28;20730;-43
2021/04/27 02:17:10;;;;;;;9.18;4.60;;;;;;;10.50;90.73;94796.09;5070083;28;20031;-43
2021/04/27 02:19:37;;;;;;;7.63;5.20;;;;;;;10.50;91.01;94794.28;5084401;28;20042;-43
2021/04/27 02:22:05;;;;;;;6.45;4.78;;;;;;;10.48;91.30;94801.50;5088965;28;20078;-45
2021/04/27 02:24:34;;;;;;;9.90;5.60;;;;;;;10.49;91.47;94799.72;5084783;28;20034;-45
2021/04/27 02:27:01;;;;;;;9.30;5.88;;;;;;;10.45;91.62;94794.78;5085915;28;20030;-44
2021/04/27 02:29:28;;;;;;;10.85;5.25;;;;;;;10.47;91.16;94791.97;5089852;28;20028;-44
2021/04/27 02:31:56;;;;;;;6.47;4.18;;;;;;;10.56;90.28;94796.25;5086535;28;20476;-44
2021/04/27 02:34:23;;;;;;;10.27;5.18;;;;;;;10.57;90.33;94787.38;5090463;28;20087;-44
2021/04/27 02:36:50;;;;;;;8.73;5.95;;;;;;;10.49;90.84;94795.25;5088491;28;20027;-46
2021/04/27 02:39:16;;;;;;;11.65;6.53;;;;;;;10.46;91.29;94793.78;5087372;28;20028;-44
2021/04/27 02:41:42;;;;;;;7.85;6.95;;;;;;;10.43;91.37;94788.00;5085802;28;20072;-48
2021/04/27 02:44:08;;;;;;;8.52;6.47;;;;;;;10.36;91.82;94784.38;5085225;28;20103;-47
2021/04/27 02:46:35;;;;;;;7.00;6.00;;;;;;;10.39;91.70;94784.03;5085191;28;20858;-46
2021/04/27 02:49:01;;;;;;;9.95;6.88;;;;;;;10.42;91.31;94791.63;5085633;28;20012;-45
2021/04/27 02:51:26;;;;;;;12.48;6.05;;;;;;;10.42;90.93;94781.09;5088629;28;20030;-48
2021/04/27 02:53:52;;;;;;;12.30;5.80;;;;;;;10.59;90.32;94782.78;5084912;28;20024;-46
2021/04/27 02:56:18;;;;;;;8.65;5.53;;;;;;;10.46;90.62;94783.25;5084053;28;20031;-44
2021/04/27 02:58:43;;;;;;;11.52;5.78;;;;;;;10.42;91.24;94775.84;5085647;28;20092;-44
2021/04/27 03:01:09;;;;;;;10.65;5.97;;;;;;;10.39;91.51;94774.34;5089788;28;20032;-43
2021/04/27 03:03:35;;;;;;;12.02;6.55;;;;;;;10.49;90.86;94781.28;5084358;28;20032;-45
2021/04/27 03:06:00;;;;;;;11.35;7.50;;;;;;;10.38;91.33;94777.13;5083046;28;20024;-43
2021/04/27 03:08:26;;;;;;;14.32;8.75;;;;;;;10.27;92.36;94773.81;5086033;28;20208;-44
2021/04/27 03:10:52;;;;;;;8.18;7.10;;;;;;;10.25;92.42;94777.63;5085056;28;20031;-45
2021/04/27 03:13:19;;;;;;;12.00;6.97;;;;;;;10.21;92.66;94766.59;5086262;28;20487;-44
2021/04/27 03:15:45;;;;;;;9.05;6.25;;;;;;;10.22;92.42;94770.88;5084883;28;20159;-44
2021/04/27 03:18:11;;;;;;;8.40;6.18;;;;;;;10.28;92.00;94770.22;5080609;28;20029;-45
2021/04/27 03:20:36;;;;;;;8.65;5.80;;;;;;;10.33;91.67;94767.09;5087544;28;20499;-48
2021/04/27 03:23:02;;;;;;;7.00;5.90;;;;;;;10.37;91.61;94767.59;5085236;28;20028;-46
2021/04/27 03:25:28;;;;;;;8.75;6.40;;;;;;;10.40;91.48;94764.63;5084733;28;20078;-45
2021/04/27 03:27:53;;;;;;;11.88;6.18;;;;;;;10.40;91.54;94767.28;5086083;28;20035;-45
2021/04/27 03:30:19;;;;;;;9.20;6.40;;;;;;;10.32;91.60;94765.44;5081994;28;20097;-43
2021/04/27 03:32:45;;;;;;;10.80;6.60;;;;;;;10.26;91.84;94766.91;5086014;28;20077;-45
2021/04/27 03:35:13;;;;;;;10.82;6.30;;;;;;;10.30;91.58;94764.78;5085056;28;20029;-44
2021/04/27 03:37:39;;;;;;;14.13;6.25;;;;;;;10.29;91.47;94760.50;5084182;28;20082;-45
2021/04/27 03:40:07;;;;;;;11.40;6.72;;;;;;;10.29;91.46;94763.97;5071809;28;20027;-44
2021/04/27 03:42:33;;;;;;;9.27;7.38;;;;;;;10.30;91.42;94756.91;5091151;28;20195;-43
2021/04/27 03:44:58;;;;;;;10.75;6.75;;;;;;;10.38;91.36;94761.34;5091041;28;20046;-46
2021/04/27 03:47:24;;;;;;;18.40;6.95;;;;;;;10.48;91.03;94761.22;5085530;28;20025;-46
2021/04/27 03:49:49;;;;;;;10.45;6.82;;;;;;;10.49;91.38;94760.22;5083376;28;20028;-45
2021/04/27 03:52:15;;;;;;;10.15;6.63;;;;;;;10.48;91.27;94763.84;5085236;28;20028;-45
2021/04/27 03:54:41;;;;;;;9.73;6.40;;;;;;;10.45;91.49;94770.25;5085094;28;20035;-45
2021/04/27 03:57:06;;;;;;;11.70;6.82;;;;;;;10.39;91.77;94769.09;5089637;28;20080;-45
2021/04/27 03:59:32;;;;;;;8.50;6.45;;;;;;;10.29;92.26;94766.63;5089682;28;20036;-46
2021/04/27 04:01:58;;;;;;;8.43;6.60;;;;;;;10.25;92.58;94762.63;5066667;28;20021;-45
2021/04/27 04:04:24;;;;;;;10.13;5.85;;;;;;;10.26;92.45;94766.91;5080562;28;20028;-45
2021/04/27 04:06:50;;;;;;;9.45;7.30;;;;;;;10.25;92.41;94767.91;5087114;28;20022;-46
2021/04/27 04:09:16;;;;;;;9.70;7.10;;;;;;;10.26;92.19;94772.19;5086287;28;20046;-45
2021/04/27 04:11:42;;;;;;;12.18;8.30;;;;;;;10.33;92.10;94774.97;5084229;28;20078;-46
2021/04/27 04:14:08;;;;;;;10.75;7.38;;;;;;;10.43;91.85;94767.81;5083561;28;20040;-46
2021/04/27 04:16:34;;;;;;;10.82;7.75;;;;;;;10.37;92.18;94771.03;5085783;28;20505;-45
2021/04/27 04:18:59;;;;;;;13.77;7.78;;;;;;;10.31;92.54;94775.16;5082829;28;20027;-46
2021/04/27 04:21:25;;;;;;;11.23;8.73;;;;;;;10.23;93.44;94777.75;5084884;28;20559;-47
2021/04/27 04:23:54;;;;;;;15.43;7.93;;;;;;;10.34;93.17;94775.81;5089856;28;20019;-47
2021/04/27 04:26:21;;;;;;;10.52;7.68;;;;;;;10.35;92.92;94777.47;5086072;28;20059;-45
2021/04/27 04:28:47;;;;;;;9.13;7.88;;;;;;;10.35;92.58;94777.47;5079663;28;20377;-47
2021/04/27 04:31:12;;;;;;;10.88;7.72;;;;;;;10.47;92.11;94778.81;5085297;28;20028;-45
2021/04/27 04:33:38;;;;;;;8.88;7.97;;;;;;;10.48;91.93;94785.72;5083222;28;20020;-45
2021/04/27 04:36:04;;;;;;;10.13;7.38;;;;;;;10.40;92.16;94785.69;5084109;28;20020;-45
2021/04/27 04:38:29;;;;;;;8.57;7.63;;;;;;;10.30;92.46;94778.78;5086021;28;20024;-45
2021/04/27 04:40:56;;;;;;;12.18;7.30;;;;;;;10.32;92.27;94789.13;5088879;28;20031;-46
2021/04/27 04:43:21;;;;;;;9.73;5.97;;;;;;;10.29;92.20;94787.66;5072139;28;20028;-47
2021/04/27 04:45:47;;;;;;;10.85;5.60;;;;;;;10.25;92.06;94788.94;5086460;28;20020;-47
2021/04/27 04:48:13;;;;;;;10.10;5.97;;;;;;;10.21;92.25;94795.53;5086029;28;20103;-45
2021/04/27 04:50:39;;;;;;;11.30;5.70;;;;;;;10.21;92.24;94794.72;5084480;28;20060;-44
2021/04/27 04:53:06;;;;;;;10.85;6.47;;;;;;;10.34;91.93;94797.69;5088166;28;20023;-44
2021/04/27 04:55:33;;;;;;;15.35;6.38;;;;;;;10.20;92.20;94793.88;5080905;28;20028;-46
2021/04/27 04:57:58;;;;;;;8.82;5.95;;;;;;;10.27;92.02;94801.94;5083167;28;20028;-44
2021/04/27 05:00:25;;;;;;;9.57;5.90;;;;;;;10.30;91.97;94801.63;5088417;28;20033;-44
2021/04/27 05:02:51;;;;;;;11.57;6.28;;;;;;;10.23;92.04;94798.81;5079377;28;20031;-45
2021/04/27 05:05:17;;;;;;;9.75;6.32;;;;;;;10.14;92.24;94800.59;5085571;28;20407;-46
2021/04/27 05:07:45;;;;;;;12.50;5.72;;;;;;;10.14;92.50;94805.06;5092392;28;20482;-46
2021/04/27 05:10:12;;;;;;;8.63;5.95;;;;;;;10.16;92.81;94805.72;5086707;28;20020;-45
2021/04/27 05:12:38;;;;;;;9.85;5.90;;;;;;;10.04;93.25;94798.09;5085406;28;20067;-45
2021/04/27 05:15:05;;;;;;;10.50;6.60;;;;;;;10.03;93.43;94801.72;5084399;28;20032;-46
2021/04/27 05:17:31;;;;;;;6.88;5.97;;;;;;;10.02;93.46;94802.72;5078446;28;20028;-47
2021/04/27 05:19:58;;;;;;;7.47;5.75;;;;;;;9.97;93.79;94804.19;5085036;28;20431;-46
2021/04/27 05:22:24;;;;;;;8.32;6.30;;;;;;;10.00;93.55;94798.59;5086763;28;20027;-45
2021/04/27 05:24:51;;;;;;;8.60;6.07;;;;;;;10.01;93.47;94805.50;5081406;28;20097;-46
2021/04/27 05:27:17;;;;;;;9.95;6.68;;;;;;;10.01;93.15;94805.50;5081742;28;20032;-46
2021/04/27 05:29:43;;;;;;;10.25;6.28;;;;;;;10.03;93.31;94808.81;5084755;28;20050;-45
2021/04/27 05:32:09;;;;;;;7.43;6.03;;;;;;;9.99;93.09;94813.56;5071254;28;20039;-45
2021/04/27 05:34:35;;;;;;;8.85;6.82;;;;;;;10.01;93.04;94805.50;5078121;28;20036;-46
2021/04/27 05:37:01;;;;;;;9.27;7.10;;;;;;;10.00;93.88;94809.13;5082675;28;20123;-47
2021/04/27 05:39:27;;;;;;;13.73;6.80;;;;;;;10.00;93.46;94809.13;5083521;28;20036;-46
2021/04/27 05:41:52;;;;;;;10.68;6.38;;;;;;;10.08;93.11;94806.50;5085215;28;20032;-44
2021/04/27 05:44:18;;;;;;;9.85;8.00;;;;;;;10.09;93.13;94807.34;5080617;28;20064;-44
2021/04/27 05:46:44;;;;;;;12.98;10.70;;;;;;;10.14;93.17;94812.94;5084687;28;20027;-45
2021/04/27 05:49:10;;;;;;;12.80;9.68;;;;;;;10.08;92.99;94810.97;5081186;28;20032;-45
2021/04/27 05:51:35;;;;;;;12.73;8.55;;;;;;;10.21;92.81;94810.50;5068015;28;20530;-45
2021/04/27 05:54:01;;;;;;;12.40;10.93;;;;;;;10.25;92.12;94812.63;5082185;28;20031;-45
2021/04/27 05:56:26;;;;;;;15.45;12.82;;;;;;;10.20;92.67;94814.91;5081426;28;20035;-46
2021/04/27 05:58:52;;;;;;;14.02;11.30;;;;;;;10.20;92.89;94811.47;5066851;28;20045;-45
2021/04/27 06:01:18;;;;;;;12.25;10.98;;;;;;;10.21;93.37;94808.66;5020962;28;20114;-47
2021/04/27 06:03:43;;;;;;;17.95;11.40;;;;;;;10.23;93.65;94806.69;5067815;28;20035;-46
2021/04/27 06:06:09;;;;;;;12.80;11.02;;;;;;;10.27;93.29;94808.03;5059902;28;20061;-47
2021/04/27 06:08:36;;;;;;;14.10;10.60;;;;;;;10.32;93.17;94803.13;5062807;28;20029;-45
2021/04/27 06:11:06;;;;;;;12.80;9.20;;;;;;;10.35;93.13;94803.78;5060351;28;20078;-45
2021/04/27 06:13:32;;;;;;;10.18;8.40;;;;;;;10.35;93.10;94812.47;5062840;28;20025;-47
2021/04/27 06:15:57;;;;;;;10.25;8.80;;;;;;;10.45;92.59;94807.94;5063936;28;20035;-46
2021/04/27 06:18:23;;;;;;;12.95;9.25;;;;;;;10.53;92.19;94809.75;5059029;28;20056;-47
2021/04/27 06:20:48;;;;;;;11.88;8.65;;;;;;;10.58;91.62;94802.19;5062431;28;20055;-47
2021/04/27 06:23:15;;;;;;;11.68;10.60;;;;;;;10.68;91.51;94804.66;5065756;28;20491;-45
2021/04/27 06:25:41;;;;;;;11.50;9.80;;;;;;;10.72;91.60;94808.59;5065230;28;20031;-47
2021/04/27 06:28:06;;;;;;;13.30;9.15;;;;;;;10.84;91.31;94808.28;5062902;28;20017;-44
2021/04/27 06:30:32;;;;;;;9.57;7.82;;;;;;;10.79;91.23;94808.78;5059407;28;20060;-48
2021/04/27 06:32:57;;;;;;;10.98;8.65;;;;;;;10.74;91.44;94811.09;5061828;28;20031;-47
2021/04/27 06:35:27;;;;;;;13.73;10.85;;;;;;;10.78;91.46;94812.41;5059527;28;20444;-47
2021/04/27 06:37:53;;;;;;;14.13;11.00;;;;;;;10.85;91.11;94802.03;5064532;28;20028;-45
2021/04/27 06:40:19;;;;;;;13.02;8.95;;;;;;;10.96;91.11;94808.78;5058997;28;20108;-46
2021/04/27 06:42:46;;;;;;;8.82;7.82;;;;;;;11.02;90.55;94808.09;5068091;28;20055;-45
2021/04/27 06:45:12;;;;;;;8.60;7.72;;;;;;;10.99;90.99;94813.69;5063041;28;20471;-45
2021/04/27 06:47:38;;;;;;;15.98;9.20;;;;;;;10.98;91.13;94809.41;5066974;28;20033;-45
2021/04/27 06:50:05;;;;;;;15.05;9.85;;;;;;;11.10;90.73;94804.63;5066048;28;20405;-47
2021/04/27 06:52:31;;;;;;;15.02;9.65;;;;;;;11.23;90.31;94809.38;5070349;28;20070;-46
2021/04/27 06:54:57;;;;;;;10.60;8.38;;;;;;;11.26;90.08;94807.22;5069507;28;20028;-46
2021/04/27 06:57:22;;;;;;;11.18;8.80;;;;;;;11.23;90.11;94812.03;5063849;28;20480;-46
2021/04/27 06:59:48;;;;;;;11.45;9.02;;;;;;;11.35;89.10;94808.03;5078895;28;20104;-46
2021/04/27 07:02:13;;;;;;;11.55;9.60;;;;;;;11.28;89.10;94807.06;5072586;28;20653;-47
2021/04/27 07:04:40;;;;;;;12.55;9.93;;;;;;;11.23;89.46;94809.38;5090542;28;20043;-48
2021/04/27 07:07:06;;;;;;;10.27;9.27;;;;;;;11.29;89.30;94806.06;5088258;28;20036;-46
2021/04/27 07:09:31;;;;;;;15.30;9.68;;;;;;;11.20;89.90;94802.63;5078756;28;20506;-46
2021/04/27 07:11:58;;;;;;;14.00;9.75;;;;;;;10.97;90.61;94807.78;5080946;28;20042;-46
2021/04/27 07:14:25;;;;;;;14.18;9.75;;;;;;;10.87;91.01;94800.84;5084814;28;20036;-45
2021/04/27 07:16:50;;;;;;;16.95;8.90;;;;;;;10.86;91.01;94801.84;5083673;28;20073;-46
2021/04/27 07:19:16;;;;;;;12.20;8.32;;;;;;;10.98;90.90;94801.53;5087458;28;20024;-48
2021/04/27 07:21:42;;;;;;;12.82;9.45;;;;;;;10.96;90.66;94806.13;5086352;28;20096;-45
2021/04/27 07:24:27;;;;;;;12.23;9.73;;;;;;;10.93;90.71;94799.38;5083360;28;20411;-47
2021/04/27 07:34:19;;;;;;;9.65;8.10;;;;;;;11.22;89.99;94790.09;4964382;28;20043;-47
2021/04/27 07:36:45;;;;;;;12.82;9.40;;;;;;;11.27;89.58;94789.59;4968510;28;20027;-45
2021/04/27 07:39:14;;;;;;;10.52;9.10;;;;;;;11.23;90.00;94791.75;4963068;28;20394;-47
2021/04/27 07:41:39;;;;;;;15.27;9.45;;;;;;;11.23;89.87;94789.13;4968908;28;20031;-46
2021/04/27 07:44:05;;;;;;;10.93;9.02;;;;;;;11.38;89.57;94791.06;4975585;28;20027;-46
2021/04/27 07:46:32;;;;;;;11.20;9.75;;;;;;;11.55;89.37;94792.66;4972140;28;20031;-48
2021/04/27 07:48:58;;;;;;;13.35;11.05;;;;;;;11.59;89.60;94801.03;4972952;28;20038;-46
2021/04/27 07:51:23;;;;;;;15.35;11.25;;;;;;;11.71;88.94;94798.84;4970517;28;20058;-47
2021/04/27 07:53:49;;;;;;;15.25;11.65;;;;;;;12.00;88.04;94797.44;4969049;28;20505;-49
2021/04/27 07:56:14;;;;;;;12.93;11.50;;;;;;;12.04;87.64;94790.84;4972916;28;20039;-47
2021/04/27 07:58:40;;;;;;;18.92;11.80;;;;;;;12.16;85.85;94788.63;4976686;28;20034;-47
2021/04/27 08:01:06;;;;;;;13.60;12.20;;;;;;;12.41;86.33;94788.47;4977390;28;20081;-46
2021/04/27 08:03:31;;;;;;;12.55;11.27;;;;;;;12.57;85.19;94796.28;4974723;28;20155;-47
2021/04/27 08:05:57;;;;;;;12.20;11.00;;;;;;;12.57;85.23;94795.44;4975839;28;20458;-47
2021/04/27 08:08:23;;;;;;;12.73;11.23;;;;;;;12.68;84.26;94791.56;4976824;28;20027;-46
2021/04/27 08:10:52;;;;;;;12.27;11.18;;;;;;;12.71;84.48;94791.22;4972372;28;20078;-45
2021/04/27 08:13:18;;;;;;;13.40;11.98;;;;;;;12.83;82.41;94791.63;4973018;28;20482;-47
2021/04/27 08:15:44;;;;;;;13.93;11.60;;;;;;;12.87;83.22;94791.09;4972572;28;20101;-46
2021/04/27 08:18:10;;;;;;;12.57;11.48;;;;;;;13.18;83.13;94786.69;4973720;28;20097;-48
2021/04/27 08:20:37;;;;;;;13.60;11.93;;;;;;;13.25;81.54;94792.06;4972149;28;20054;-50
2021/04/27 08:23:03;;;;;;;13.27;11.88;;;;;;;13.51;81.25;94785.56;4973061;28;20027;-47
2021/04/27 08:25:30;;;;;;;13.88;12.70;;;;;;;13.66;80.89;94786.38;4972761;28;20027;-46
2021/04/27 08:27:55;;;;;;;14.27;12.73;;;;;;;13.59;81.13;94777.50;4973764;28;20031;-46
2021/04/27 08:30:23;;;;;;;14.43;13.02;;;;;;;13.66;78.88;94783.72;4972870;28;20038;-50
2021/04/27 08:32:49;;;;;;;14.55;13.10;;;;;;;13.48;78.79;94778.78;4976609;28;20022;-47
2021/04/27 08:35:15;;;;;;;14.05;12.68;;;;;;;13.83;78.92;94772.97;4988861;28;20142;-46
2021/04/27 08:37:41;;;;;;;14.52;12.73;;;;;;;14.14;77.88;94770.03;4989102;28;20118;-46
2021/04/27 08:40:10;;;;;;;13.25;12.05;;;;;;;14.27;76.51;94772.03;5011581;28;20053;-47
2021/04/27 08:42:36;;;;;;;17.80;12.45;;;;;;;14.66;74.06;94772.59;5015941;28;20044;-47
2021/04/27 08:45:08;;;;;;;16.17;11.68;;;;;;;15.20;72.49;94772.25;5015369;28;20084;-47
2021/04/27 08:47:34;;;;;;;12.27;11.10;;;;;;;15.63;68.99;94769.44;5014416;28;20034;-47
2021/04/27 08:50:03;;;;;;;12.02;10.38;;;;;;;15.84;68.26;94771.19;5012026;28;20045;-48
2021/04/27 08:52:29;;;;;;;12.40;11.07;;;;;;;15.94;67.60;94770.03;5012771;28;20036;-47
2021/04/27 08:54:54;;;;;;;11.48;10.10;;;;;;;15.93;68.12;94765.75;5013393;28;20409;-47
2021/04/27 08:57:20;;;;;;;13.57;10.20;;;;;;;16.22;66.14;94764.59;5012077;28;20029;-47
2021/04/27 08:59:46;;;;;;;10.93;9.73;;;;;;;16.52;65.45;94756.31;5011781;28;20057;-46
2021/04/27 09:02:11;;;;;;;12.43;10.50;;;;;;;17.27;63.92;94755.31;5008644;28;20501;-50
2021/04/27 09:04:39;;;;;;;12.13;9.90;;;;;;;17.67;61.33;94758.91;5011886;28;20048;-44
2021/04/27 09:07:06;;;;;;;15.07;10.80;;;;;;;18.06;59.39;94751.84;5010382;28;20124;-47
2021/04/27 09:09:59;;;;;;;14.45;10.52;;;;;;;18.36;57.88;94755.78;5008467;28;20033;-47
2021/04/27 09:12:27;;;;;;;13.13;10.82;;;;;;;18.68;56.70;94758.47;5007044;28;20050;-47
2021/04/27 09:14:54;;;;;;;11.57;10.57;;;;;;;18.61;56.14;94754.00;5016531;28;20022;-45
2021/04/27 09:17:28;;;;;;;11.40;10.18;;;;;;;18.34;56.21;94756.00;5012477;28;20029;-46
2021/04/27 09:19:56;;;;;;;16.63;10.90;;;;;;;18.22;57.45;94750.53;5010165;28;20026;-45
2021/04/27 09:22:24;;;;;;;12.35;11.05;;;;;;;18.32;57.99;94756.22;5016105;28;20436;-47
2021/04/27 09:24:53;;;;;;;18.58;13.13;;;;;;;18.28;57.48;94752.34;5014984;28;20026;-46
2021/04/27 09:27:35;;;;;;;11.80;10.70;;;;;;;17.64;60.63;94751.34;5016781;28;20040;-46
2021/04/27 09:30:23;;;;;;;11.57;10.38;;;;;;;18.03;57.09;94752.28;5012067;28;20030;-45
2021/04/27 09:32:57;;;;;;;12.93;10.57;;;;;;;17.56;58.75;94747.06;5022045;28;20489;-46
2021/04/27 09:35:28;;;;;;;12.45;11.25;;;;;;;17.93;58.34;94750.03;4995613;28;20477;-47
2021/04/27 09:38:13;;;;;;;12.88;11.05;;;;;;;17.78;58.26;94742.31;4985942;28;20042;-45
2021/04/27 09:40:58;;;;;;;11.85;10.57;;;;;;;17.45;59.75;94746.69;5001982;28;20034;-45
2021/04/27 09:43:29;;;;;;;11.98;10.50;;;;;;;17.85;58.90;94739.63;4988534;28;20022;-47
2021/04/27 09:45:58;;;;;;;13.57;10.07;;;;;;;17.76;58.72;94745.16;4992920;28;20042;-46
2021/04/27 09:48:32;;;;;;;12.90;10.30;;;;;;;17.80;59.12;94731.47;4991348;28;20378;-49
2021/04/27 09:51:27;;;;;;;18.65;10.05;;;;;;;17.59;59.57;94730.72;4985007;28;20397;-46
2021/04/27 09:53:55;;;;;;;15.20;10.30;;;;;;;17.66;59.49;94726.16;4989951;28;20128;-45
2021/04/27 09:56:47;;;;;;;10.93;9.60;;;;;;;17.65;59.00;94729.84;4986853;28;20038;-46
2021/04/27 09:59:31;;;;;;;11.30;10.02;;;;;;;17.57;59.30;94722.09;4989271;28;20110;-47
2021/04/27 10:02:01;;;;;;;16.30;9.93;;;;;;;17.53;60.05;94723.53;4986981;28;20033;-47
2021/04/27 10:04:28;;;;;;;11.18;9.73;;;;;;;17.89;57.90;94730.19;4987208;28;20181;-45
2021/04/27 10:06:57;;;;;;;10.18;9.23;;;;;;;17.27;61.13;94722.56;4989029;28;20022;-45
2021/04/27 10:09:23;;;;;;;10.75;9.65;;;;;;;17.04;61.22;94729.16;4986318;28;20512;-45
2021/04/27 10:11:51;;;;;;;11.98;10.15;;;;;;;17.35;59.82;94724.22;4984361;28;20038;-47
2021/04/27 10:14:17;;;;;;;11.93;9.25;;;;;;;17.23;60.23;94726.69;4986088;28;20043;-46
2021/04/27 10:16:43;;;;;;;12.13;9.02;;;;;;;17.38;60.95;94715.81;4990829;28;20064;-49
2021/04/27 10:19:10;;;;;;;11.32;8.55;;;;;;;17.35;60.06;94719.69;4991862;28;20046;-46
2021/04/27 10:21:38;;;;;;;10.77;9.07;;;;;;;17.37;58.50;94717.66;4942305;28;20054;-45
2021/04/27 10:24:13;;;;;;;12.15;8.57;;;;;;;17.51;58.73;94713.13;4997346;28;20027;-49
2021/04/27 10:26:43;;;;;;;8.85;8.02;;;;;;;17.70;57.85;94716.72;4992885;28;20041;-45
2021/04/27 10:29:20;;;;;;;8.88;7.85;;;;;;;17.41;58.52;94715.38;4988404;28;20030;-46
2021/04/27 10:31:47;;;;;;;8.65;7.72;;;;;;;17.27;59.40;94707.44;4986361;28;20023;-47
2021/04/27 10:34:19;;;;;;;9.68;8.02;;;;;;;17.31;58.70;94710.50;4999564;28;20049;-46
2021/04/27 10:36:51;;;;;;;9.63;8.60;;;;;;;17.16;59.53;94708.91;5009608;28;20029;-50
2021/04/27 10:39:42;;;;;;;9.18;8.13;;;;;;;17.17;59.43;94712.38;5008409;28;20930;-47
2021/04/27 10:42:18;;;;;;;10.75;8.07;;;;;;;17.44;57.70;94706.97;5012857;28;20113;-45
2021/04/27 10:44:56;;;;;;;8.82;8.02;;;;;;;17.12;58.83;94707.66;5007209;28;20065;-45
2021/04/27 10:47:24;;;;;;;10.32;7.93;;;;;;;17.65;58.64;94713.88;5006158;28;20037;-45
2021/04/27 10:49:53;;;;;;;10.05;7.18;;;;;;;17.30;57.95;94706.19;5005160;28;20117;-44
2021/04/27 10:52:38;;;;;;;8.40;7.53;;;;;;;17.67;57.13;94703.84;5005571;28;20036;-47
2021/04/27 10:55:27;;;;;;;10.32;7.50;;;;;;;17.36;60.12;94701.91;5004027;28;20065;-45
2021/04/27 10:57:55;;;;;;;8.85;7.35;;;;;;;17.25;60.33;94703.34;5006808;28;20049;-46
2021/04/27 11:00:42;;;;;;;8.52;7.63;;;;;;;17.17;59.54;94699.91;5003458;28;20029;-44
2021/04/27 11:03:13;;;;;;;8.80;7.18;;;;;;;16.96;60.10;94706.22;5005219;28;20033;-47
2021/04/27 11:06:05;;;;;;;9.68;8.02;;;;;;;16.92;60.27;94702.34;5003225;28;20037;-45
2021/04/27 11:09:10;;;;;;;11.25;7.60;;;;;;;17.00;60.85;94706.66;5011384;28;20022;-46
2021/04/27 11:11:36;;;;;;;10.90;7.78;;;;;;;17.41;60.32;94696.75;5010752;28;20056;-46
2021/04/27 11:14:23;;;;;;;8.77;7.80;;;;;;;17.16;62.42;94689.47;5010947;28;20034;-44
2021/04/27 11:16:54;;;;;;;8.07;7.38;;;;;;;17.49;56.70;94695.72;5009413;28;20041;-51
2021/04/27 11:19:20;;;;;;;9.82;7.90;;;;;;;16.95;60.87;94698.47;5010994;28;20036;-48
2021/04/27 11:21:47;;;;;;;7.10;6.35;;;;;;;16.97;56.39;94696.41;5009749;28;20022;-44
2021/04/27 11:24:35;;;;;;;11.35;6.82;;;;;;;16.70;58.42;94689.28;5007018;28;20038;-49
2021/04/27 11:27:01;;;;;;;8.10;7.25;;;;;;;17.10;56.93;94695.63;5004405;28;20034;-48
2021/04/27 11:29:34;;;;;;;7.60;6.80;;;;;;;16.76;59.61;94696.41;5008553;28;20040;-47
2021/04/27 11:32:09;;;;;;;11.80;8.80;;;;;;;16.67;61.03;94702.13;5011976;28;20021;-47
2021/04/27 11:34:56;;;;;;;11.38;10.18;;;;;;;16.68;59.15;94696.63;5008517;28;20041;-46
2021/04/27 11:37:36;;;;;;;12.32;9.23;;;;;;;16.43;61.96;94696.41;5008909;28;20050;-45